Time;durP1;ratioP1;P1;durP2;ratioP2;P2;SDS_P1;SDS_P2;PMS_P1;PMS_P2;Temp;Humidity;BMP_temperature;BMP_pressure;BME280_temperature;BME280_humidity;BME280_pressure;Samples;Min_cycle;Max_cycle;Signal;HPM_P1;HPM_P2
2024/01/13 00:00:15;;;;;;;33.97;17.20;;;2.10;99.90;;;;;;5016108;28;20829;-65
2024/01/13 00:02:41;;;;;;;33.20;16.10;;;2.10;99.90;;;;;;5010229;28;20767;-65
2024/01/13 00:05:06;;;;;;;30.80;16.67;;;2.20;99.90;;;;;;5014354;28;20218;-65
2024/01/13 00:07:32;;;;;;;30.20;18.20;;;2.10;99.90;;;;;;5014741;28;20193;-65
2024/01/13 00:09:57;;;;;;;35.50;17.90;;;2.10;99.90;;;;;;5009351;28;20211;-65
2024/01/13 00:12:23;;;;;;;36.30;18.33;;;2.20;99.90;;;;;;5013897;28;20609;-65
2024/01/13 00:14:49;;;;;;;28.83;16.17;;;2.20;99.90;;;;;;5014593;28;20294;-65
2024/01/13 00:17:15;;;;;;;35.23;17.80;;;2.20;99.90;;;;;;5016970;28;20191;-65
2024/01/13 00:19:40;;;;;;;33.20;17.53;;;2.20;99.90;;;;;;5014873;28;20435;-65
2024/01/13 00:22:06;;;;;;;28.23;16.97;;;2.20;99.90;;;;;;5012095;28;20267;-65
2024/01/13 00:24:32;;;;;;;34.57;16.93;;;2.20;99.90;;;;;;5013329;28;20205;-65
2024/01/13 00:26:57;;;;;;;25.47;15.40;;;2.00;99.90;;;;;;5017569;28;20188;-65
2024/01/13 00:29:23;;;;;;;29.33;16.40;;;1.90;99.90;;;;;;5019399;28;20198;-65
2024/01/13 00:31:48;;;;;;;27.90;16.53;;;1.90;99.90;;;;;;5018125;28;20647;-65
2024/01/13 00:34:14;;;;;;;27.67;16.17;;;2.00;99.90;;;;;;5017718;28;20735;-65
2024/01/13 00:36:39;;;;;;;25.80;15.90;;;2.00;99.90;;;;;;5023815;28;20683;-65
2024/01/13 00:39:05;;;;;;;31.00;15.50;;;1.90;99.90;;;;;;5016170;28;20173;-65
2024/01/13 00:41:31;;;;;;;31.80;15.97;;;1.90;99.90;;;;;;5022389;28;20706;-65
2024/01/13 00:43:56;;;;;;;29.80;16.50;;;1.90;99.90;;;;;;5008025;28;20471;-65
2024/01/13 00:46:22;;;;;;;27.83;16.33;;;2.00;99.90;;;;;;5017443;28;20181;-65
2024/01/13 00:48:48;;;;;;;28.87;15.40;;;2.10;99.90;;;;;;5012328;28;20185;-65
2024/01/13 00:51:14;;;;;;;32.90;16.70;;;2.00;99.90;;;;;;5007594;28;20184;-65
2024/01/13 00:53:40;;;;;;;30.43;15.03;;;2.10;99.90;;;;;;5012707;28;20212;-65
2024/01/13 00:56:06;;;;;;;27.43;14.90;;;2.00;99.90;;;;;;5005018;28;20803;-65
2024/01/13 00:58:32;;;;;;;26.73;14.70;;;2.00;99.90;;;;;;5010263;28;20173;-65
2024/01/13 01:00:59;;;;;;;26.20;16.23;;;2.00;99.90;;;;;;5015097;28;20510;-65
2024/01/13 01:03:26;;;;;;;29.13;17.37;;;2.00;99.90;;;;;;5015758;28;20221;-65
2024/01/13 01:05:52;;;;;;;26.90;15.87;;;1.90;99.90;;;;;;5014317;28;20492;-65
2024/01/13 01:08:18;;;;;;;33.07;18.67;;;1.90;99.90;;;;;;5013862;28;20478;-65
2024/01/13 01:10:44;;;;;;;32.80;17.57;;;1.90;99.90;;;;;;5015085;28;21121;-65
2024/01/13 01:13:09;;;;;;;28.03;17.43;;;2.00;99.90;;;;;;5011485;28;20362;-65
2024/01/13 01:15:35;;;;;;;24.57;15.10;;;1.90;99.90;;;;;;5009192;28;20185;-65
2024/01/13 01:18:00;;;;;;;31.47;15.20;;;2.00;99.90;;;;;;5010628;28;20197;-65
2024/01/13 01:20:26;;;;;;;29.70;15.30;;;1.90;99.90;;;;;;5022873;28;20588;-66
2024/01/13 01:22:52;;;;;;;26.03;15.70;;;1.90;99.90;;;;;;5012391;28;20239;-65
2024/01/13 01:25:17;;;;;;;23.67;14.77;;;2.00;99.90;;;;;;5015423;28;20540;-65
2024/01/13 01:27:43;;;;;;;26.87;15.33;;;2.00;99.90;;;;;;5017376;28;20184;-65
2024/01/13 01:30:09;;;;;;;32.73;15.77;;;1.80;99.90;;;;;;5007660;28;20635;-65
2024/01/13 01:32:34;;;;;;;26.80;15.60;;;1.90;99.90;;;;;;5007613;28;20181;-65
2024/01/13 01:35:00;;;;;;;23.93;14.20;;;1.90;99.90;;;;;;5019016;28;20434;-65
2024/01/13 01:37:25;;;;;;;24.57;14.23;;;1.90;99.90;;;;;;5009115;28;20173;-65
2024/01/13 01:39:51;;;;;;;24.90;14.47;;;1.90;99.90;;;;;;5017305;28;20204;-65
2024/01/13 01:42:16;;;;;;;22.83;12.80;;;1.90;99.90;;;;;;5015703;28;20229;-65
2024/01/13 01:44:42;;;;;;;25.67;14.50;;;1.90;99.90;;;;;;5009768;28;20205;-65
2024/01/13 01:47:08;;;;;;;24.83;14.27;;;1.80;99.90;;;;;;5014320;28;20188;-65
2024/01/13 01:49:35;;;;;;;21.70;13.20;;;1.80;99.90;;;;;;5013790;28;20845;-65
2024/01/13 01:52:01;;;;;;;25.20;13.20;;;1.80;99.90;;;;;;5012041;28;20415;-65
2024/01/13 01:54:27;;;;;;;20.17;12.13;;;1.90;99.90;;;;;;5016058;28;20438;-65
2024/01/13 01:56:53;;;;;;;27.27;14.13;;;2.00;99.90;;;;;;5009716;28;20439;-65
2024/01/13 01:59:19;;;;;;;18.90;11.60;;;1.90;99.90;;;;;;5011833;28;20420;-65
2024/01/13 02:01:46;;;;;;;20.97;11.50;;;1.80;99.90;;;;;;5016581;28;20426;-65
2024/01/13 02:04:12;;;;;;;20.70;12.03;;;1.70;99.90;;;;;;5013878;28;20491;-65
2024/01/13 02:06:37;;;;;;;21.43;12.33;;;1.60;99.90;;;;;;5014408;28;20442;-65
2024/01/13 02:09:03;;;;;;;23.67;13.07;;;1.60;99.90;;;;;;5008212;28;20276;-65
2024/01/13 02:11:28;;;;;;;24.70;13.43;;;1.60;99.90;;;;;;5014679;28;20211;-65
2024/01/13 02:13:54;;;;;;;26.67;14.67;;;1.70;99.90;;;;;;5011197;28;20679;-65
2024/01/13 02:16:20;;;;;;;26.07;13.07;;;1.60;99.90;;;;;;5006083;28;20190;-65
2024/01/13 02:18:45;;;;;;;25.97;14.30;;;1.70;99.90;;;;;;5012220;28;20198;-65
2024/01/13 02:21:12;;;;;;;24.33;13.47;;;1.80;99.90;;;;;;5016014;28;20191;-65
2024/01/13 02:23:37;;;;;;;24.37;14.10;;;1.80;99.90;;;;;;5017660;28;20214;-65
2024/01/13 02:26:03;;;;;;;26.20;14.33;;;1.80;99.90;;;;;;5014492;28;20488;-65
2024/01/13 02:28:29;;;;;;;26.13;14.00;;;1.70;99.90;;;;;;5014900;28;20223;-65
2024/01/13 02:30:54;;;;;;;25.70;15.67;;;1.70;99.90;;;;;;5015000;28;20185;-65
2024/01/13 02:33:20;;;;;;;21.47;12.67;;;1.80;99.90;;;;;;5010482;28;20701;-65
2024/01/13 02:35:46;;;;;;;25.70;13.77;;;1.70;99.90;;;;;;5008330;28;20345;-65
2024/01/13 02:38:11;;;;;;;23.63;14.53;;;1.70;99.90;;;;;;5013578;28;20325;-65
2024/01/13 02:40:37;;;;;;;26.67;14.80;;;1.80;99.90;;;;;;5012328;28;20730;-65
2024/01/13 02:43:02;;;;;;;26.90;14.13;;;1.80;99.90;;;;;;5013484;28;20201;-65
2024/01/13 02:45:28;;;;;;;24.70;15.10;;;1.70;99.90;;;;;;5014516;28;20230;-65
2024/01/13 02:47:59;;;;;;;23.27;13.90;;;1.60;99.90;;;;;;5012511;28;20193;-65
2024/01/13 02:50:25;;;;;;;28.97;13.93;;;1.60;99.90;;;;;;5012403;28;20177;-65
2024/01/13 02:52:51;;;;;;;23.47;13.50;;;1.50;99.90;;;;;;5015400;28;20431;-65
2024/01/13 02:55:16;;;;;;;24.87;13.50;;;1.50;99.90;;;;;;5015928;28;20207;-65
2024/01/13 02:57:43;;;;;;;34.03;14.67;;;1.50;99.90;;;;;;5012351;28;20188;-65
2024/01/13 03:00:09;;;;;;;34.37;15.30;;;1.40;99.90;;;;;;5021283;28;20183;-65
2024/01/13 03:02:35;;;;;;;27.00;15.10;;;1.50;99.90;;;;;;5017614;28;21083;-65
2024/01/13 03:05:00;;;;;;;29.67;14.93;;;1.50;99.90;;;;;;5016255;28;20657;-65
2024/01/13 03:07:26;;;;;;;24.63;13.03;;;1.60;99.90;;;;;;5015224;28;20215;-65
2024/01/13 03:09:52;;;;;;;23.80;12.80;;;1.70;99.90;;;;;;5018385;28;20172;-65
2024/01/13 03:12:18;;;;;;;25.90;13.00;;;1.70;99.90;;;;;;5019382;28;20189;-65
2024/01/13 03:14:45;;;;;;;28.50;14.00;;;1.60;99.90;;;;;;5016357;28;20659;-65
2024/01/13 03:17:11;;;;;;;25.40;13.23;;;1.50;99.90;;;;;;5013274;28;20510;-65
2024/01/13 03:19:37;;;;;;;21.80;13.03;;;1.50;99.90;;;;;;5016308;28;20882;-65
2024/01/13 03:22:02;;;;;;;27.40;14.50;;;1.40;99.90;;;;;;5019831;28;20206;-66
2024/01/13 03:24:28;;;;;;;24.17;13.20;;;1.40;99.90;;;;;;5013341;28;20211;-66
2024/01/13 03:26:53;;;;;;;27.43;13.97;;;1.50;99.90;;;;;;5017821;28;20268;-65
2024/01/13 03:29:19;;;;;;;23.83;14.37;;;1.50;99.90;;;;;;5011020;28;20192;-66
2024/01/13 03:31:44;;;;;;;26.73;14.03;;;1.50;99.90;;;;;;5019800;28;20212;-66
2024/01/13 03:34:10;;;;;;;24.97;13.17;;;1.50;99.90;;;;;;5021185;28;20242;-66
2024/01/13 03:36:35;;;;;;;23.23;12.70;;;1.40;99.90;;;;;;5018373;28;20196;-65
2024/01/13 03:39:01;;;;;;;23.90;13.57;;;1.40;99.90;;;;;;5014406;28;20212;-64
2024/01/13 03:41:27;;;;;;;25.33;13.67;;;1.40;99.90;;;;;;5018112;28;20188;-64
2024/01/13 03:43:53;;;;;;;19.83;11.30;;;1.50;99.90;;;;;;5016459;28;20220;-64
2024/01/13 03:46:18;;;;;;;19.27;12.63;;;1.50;99.90;;;;;;5016001;28;20923;-64
2024/01/13 03:48:44;;;;;;;20.80;11.40;;;1.50;99.90;;;;;;5018792;28;20764;-64
2024/01/13 03:51:10;;;;;;;21.97;11.97;;;1.50;99.90;;;;;;5021115;28;20180;-64
2024/01/13 03:53:36;;;;;;;27.47;14.13;;;1.50;99.90;;;;;;5020644;28;20215;-64
2024/01/13 03:56:04;;;;;;;21.83;13.20;;;1.50;99.90;;;;;;5014730;28;20439;-64
2024/01/13 03:58:29;;;;;;;20.97;13.30;;;1.50;99.90;;;;;;5017848;28;20194;-64
2024/01/13 04:00:55;;;;;;;21.07;12.83;;;1.50;99.90;;;;;;5016789;28;20515;-65
2024/01/13 04:03:21;;;;;;;21.70;11.30;;;1.50;99.90;;;;;;5017377;28;20223;-64
2024/01/13 04:05:47;;;;;;;21.97;12.40;;;1.60;99.90;;;;;;5016213;28;20183;-64
2024/01/13 04:08:12;;;;;;;22.93;12.33;;;1.60;99.90;;;;;;5014641;28;20514;-65
2024/01/13 04:10:38;;;;;;;22.83;11.93;;;1.50;99.90;;;;;;5014522;28;20426;-64
2024/01/13 04:13:09;;;;;;;21.60;12.57;;;1.50;99.90;;;;;;5023307;28;20705;-64
2024/01/13 04:15:34;;;;;;;20.20;11.70;;;1.50;99.90;;;;;;5018190;28;20234;-65
2024/01/13 04:18:00;;;;;;;21.37;12.50;;;1.50;99.90;;;;;;5021436;28;20431;-64
2024/01/13 04:20:25;;;;;;;26.60;13.40;;;1.40;99.90;;;;;;5012138;28;20203;-64
2024/01/13 04:22:51;;;;;;;22.07;11.47;;;1.40;99.90;;;;;;5014534;28;20224;-65
2024/01/13 04:25:16;;;;;;;26.00;13.37;;;1.40;99.90;;;;;;5011801;28;20181;-65
2024/01/13 04:27:42;;;;;;;20.17;12.73;;;1.40;99.90;;;;;;5009515;28;20261;-64
2024/01/13 04:30:08;;;;;;;23.67;13.27;;;1.30;99.90;;;;;;5010258;28;20234;-64
2024/01/13 04:32:33;;;;;;;24.20;12.20;;;1.40;99.90;;;;;;5012103;28;20687;-64
2024/01/13 04:34:59;;;;;;;21.30;13.33;;;1.30;99.90;;;;;;5009833;28;20576;-64
2024/01/13 04:37:25;;;;;;;21.93;13.40;;;1.40;99.90;;;;;;5012726;28;20191;-64
2024/01/13 04:39:50;;;;;;;26.23;13.20;;;1.50;99.90;;;;;;5010994;28;20187;-64
2024/01/13 04:42:16;;;;;;;21.37;14.17;;;1.40;99.90;;;;;;5015665;28;20191;-64
2024/01/13 04:44:41;;;;;;;25.10;14.50;;;1.40;99.90;;;;;;5010227;28;20696;-64
2024/01/13 04:47:07;;;;;;;21.80;12.20;;;1.30;99.90;;;;;;5014658;28;20601;-64
2024/01/13 04:49:32;;;;;;;23.40;13.83;;;1.40;99.90;;;;;;5006707;28;20558;-64
2024/01/13 04:51:58;;;;;;;22.83;13.37;;;1.40;99.90;;;;;;5012415;28;20176;-64
2024/01/13 04:54:23;;;;;;;20.17;11.70;;;1.40;99.90;;;;;;5009545;28;20543;-64
2024/01/13 04:56:49;;;;;;;24.40;14.57;;;1.60;99.90;;;;;;5018190;28;20557;-64
2024/01/13 04:59:15;;;;;;;22.17;12.97;;;1.60;99.90;;;;;;5017414;28;20264;-64
2024/01/13 05:01:40;;;;;;;19.97;11.60;;;1.60;99.90;;;;;;5016572;28;20185;-64
2024/01/13 05:04:06;;;;;;;22.03;12.03;;;1.50;99.90;;;;;;5011919;28;20220;-64
2024/01/13 05:06:31;;;;;;;22.10;13.20;;;1.30;99.90;;;;;;5015768;28;20179;-64
2024/01/13 05:08:57;;;;;;;20.53;12.10;;;1.40;99.90;;;;;;5018667;28;20267;-64
2024/01/13 05:11:22;;;;;;;22.20;13.90;;;1.40;99.90;;;;;;5017190;28;20197;-64
2024/01/13 05:13:48;;;;;;;19.27;12.63;;;1.40;99.90;;;;;;5011362;28;20215;-64
2024/01/13 05:16:13;;;;;;;23.20;12.10;;;1.40;99.90;;;;;;5015786;28;20197;-64
2024/01/13 05:18:39;;;;;;;22.33;13.57;;;1.40;99.90;;;;;;5015919;28;20181;-64
2024/01/13 05:21:04;;;;;;;28.33;13.60;;;1.40;99.90;;;;;;5019537;28;20187;-64
2024/01/13 05:23:30;;;;;;;23.50;13.00;;;1.40;99.90;;;;;;5013183;28;20220;-64
2024/01/13 05:25:56;;;;;;;22.90;12.30;;;1.20;99.90;;;;;;5013358;28;20201;-64
2024/01/13 05:28:21;;;;;;;25.53;14.30;;;1.30;99.90;;;;;;5014581;28;20188;-64
2024/01/13 05:30:47;;;;;;;23.40;13.50;;;1.30;99.90;;;;;;5013983;28;20263;-64
2024/01/13 05:33:12;;;;;;;24.87;14.30;;;1.40;99.90;;;;;;5013852;28;20213;-65
2024/01/13 05:35:38;;;;;;;22.67;14.13;;;1.40;99.90;;;;;;5015756;28;20195;-65
2024/01/13 05:38:03;;;;;;;27.83;15.90;;;1.40;99.90;;;;;;5015647;28;20185;-65
2024/01/13 05:40:29;;;;;;;28.43;17.30;;;1.30;99.90;;;;;;5009601;28;20569;-65
2024/01/13 05:42:54;;;;;;;25.10;16.07;;;1.30;99.90;;;;;;5015938;28;20259;-65
2024/01/13 05:45:20;;;;;;;27.03;16.17;;;1.40;99.90;;;;;;5014210;28;20235;-65
2024/01/13 05:47:45;;;;;;;30.97;15.70;;;1.30;99.90;;;;;;5010511;28;20185;-64
2024/01/13 05:50:11;;;;;;;29.27;16.57;;;1.50;99.90;;;;;;5014098;28;20554;-64
2024/01/13 05:52:37;;;;;;;27.07;15.43;;;1.50;99.90;;;;;;5011557;28;20177;-64
2024/01/13 05:55:03;;;;;;;26.53;16.20;;;1.60;99.90;;;;;;5010178;28;20344;-64
2024/01/13 05:57:29;;;;;;;26.73;15.60;;;1.60;99.90;;;;;;5014443;28;20206;-65
2024/01/13 05:59:54;;;;;;;23.87;14.67;;;1.60;99.90;;;;;;5010255;28;20418;-64
2024/01/13 06:02:20;;;;;;;27.13;15.03;;;1.40;99.90;;;;;;5007363;28;20467;-66
2024/01/13 06:04:49;;;;;;;21.50;13.53;;;1.20;99.90;;;;;;5009673;28;21127;-65
2024/01/13 06:07:15;;;;;;;25.43;14.90;;;1.20;99.90;;;;;;5012239;28;20192;-65
2024/01/13 06:09:40;;;;;;;22.80;13.80;;;1.30;99.90;;;;;;5009337;28;20451;-66
2024/01/13 06:12:07;;;;;;;24.47;13.90;;;1.30;99.90;;;;;;5010355;28;20192;-66
2024/01/13 06:14:33;;;;;;;22.33;14.40;;;1.30;99.90;;;;;;5008541;28;20189;-65
2024/01/13 06:16:58;;;;;;;23.83;14.00;;;1.30;99.90;;;;;;5006432;28;21004;-65
2024/01/13 06:19:24;;;;;;;27.43;14.70;;;1.30;99.90;;;;;;5010568;28;20431;-65
2024/01/13 06:21:50;;;;;;;23.00;14.10;;;1.30;99.90;;;;;;5008598;28;20658;-66
2024/01/13 06:24:15;;;;;;;26.23;14.60;;;1.20;99.90;;;;;;5011163;28;20221;-66
2024/01/13 06:26:41;;;;;;;27.50;14.23;;;1.20;99.90;;;;;;5007952;28;20343;-66
2024/01/13 06:29:08;;;;;;;22.40;13.47;;;1.20;99.90;;;;;;5014711;28;20188;-66
2024/01/13 06:31:33;;;;;;;25.33;15.10;;;1.20;99.90;;;;;;5012724;28;20415;-65
2024/01/13 06:33:59;;;;;;;21.80;13.80;;;1.20;99.90;;;;;;5013282;28;20501;-65
2024/01/13 06:36:25;;;;;;;27.27;14.80;;;1.20;99.90;;;;;;5017002;28;20184;-65
2024/01/13 06:38:50;;;;;;;20.93;12.97;;;1.10;99.90;;;;;;5014737;28;20249;-65
2024/01/13 06:41:16;;;;;;;23.03;15.13;;;1.10;99.90;;;;;;5009818;28;20202;-66
2024/01/13 06:43:41;;;;;;;24.20;14.03;;;1.00;99.90;;;;;;5019690;28;20227;-65
2024/01/13 06:46:08;;;;;;;20.57;13.10;;;1.10;99.90;;;;;;5014600;28;20188;-66
2024/01/13 06:48:33;;;;;;;26.20;15.47;;;1.10;99.90;;;;;;5013945;28;20196;-66
2024/01/13 06:50:59;;;;;;;26.07;15.10;;;1.10;99.90;;;;;;5012429;28;20438;-66
2024/01/13 06:53:25;;;;;;;26.70;15.77;;;1.10;99.90;;;;;;5015031;28;20222;-65
2024/01/13 06:55:51;;;;;;;27.93;15.03;;;1.10;99.90;;;;;;5015083;28;20679;-65
2024/01/13 06:58:16;;;;;;;23.90;14.47;;;1.30;99.90;;;;;;5013635;28;20202;-65
2024/01/13 07:00:42;;;;;;;24.87;14.07;;;1.30;99.90;;;;;;5021067;28;20423;-66
2024/01/13 07:03:08;;;;;;;25.00;14.67;;;1.20;99.90;;;;;;5015156;28;20693;-65
2024/01/13 07:05:33;;;;;;;23.07;13.73;;;1.10;99.90;;;;;;5015730;28;20186;-66
2024/01/13 07:08:00;;;;;;;27.83;15.40;;;1.20;99.90;;;;;;5012977;28;20195;-66
2024/01/13 07:10:29;;;;;;;23.60;14.20;;;1.30;99.90;;;;;;5018257;28;20261;-65
2024/01/13 07:12:55;;;;;;;28.27;15.57;;;1.40;99.90;;;;;;5015262;28;20466;-65
2024/01/13 07:15:20;;;;;;;28.37;16.13;;;1.30;99.90;;;;;;5010970;28;20508;-66
2024/01/13 07:17:46;;;;;;;27.90;14.80;;;1.40;99.90;;;;;;5015870;28;20346;-66
2024/01/13 07:20:12;;;;;;;23.57;14.07;;;1.50;99.90;;;;;;5015911;28;20972;-66
2024/01/13 07:22:37;;;;;;;24.33;14.07;;;1.40;99.90;;;;;;5018779;28;20207;-66
2024/01/13 07:25:04;;;;;;;23.27;12.40;;;1.30;99.90;;;;;;5017744;28;20604;-66
2024/01/13 07:27:30;;;;;;;20.27;13.07;;;1.50;99.90;;;;;;5016723;28;20230;-65
2024/01/13 07:29:56;;;;;;;28.33;14.93;;;1.40;99.90;;;;;;5020971;28;20411;-65
2024/01/13 07:32:22;;;;;;;23.97;14.50;;;1.30;99.90;;;;;;5015883;28;20425;-65
2024/01/13 07:34:49;;;;;;;23.60;13.40;;;1.30;99.90;;;;;;5014455;28;20212;-65
2024/01/13 07:37:15;;;;;;;22.60;13.60;;;1.30;99.90;;;;;;5016328;28;20421;-65
2024/01/13 07:39:40;;;;;;;21.23;13.70;;;1.30;99.90;;;;;;5017539;28;20811;-65
2024/01/13 07:42:06;;;;;;;22.73;12.57;;;1.20;99.90;;;;;;5017395;28;20307;-65
2024/01/13 07:44:31;;;;;;;23.53;13.37;;;1.20;99.90;;;;;;5016890;28;20214;-65
2024/01/13 07:47:01;;;;;;;22.93;12.50;;;1.20;99.90;;;;;;5016218;28;20647;-65
2024/01/13 07:49:27;;;;;;;29.47;15.00;;;1.20;99.90;;;;;;5014552;28;20174;-65
2024/01/13 07:51:54;;;;;;;22.70;12.70;;;1.20;99.90;;;;;;5014697;28;20772;-65
2024/01/13 07:54:20;;;;;;;22.27;12.77;;;1.20;99.90;;;;;;5018165;28;20474;-66
2024/01/13 07:56:47;;;;;;;23.97;13.80;;;1.20;99.90;;;;;;5018310;28;20447;-65
2024/01/13 07:59:13;;;;;;;21.37;13.03;;;1.30;99.90;;;;;;5013434;28;20443;-65
2024/01/13 08:01:39;;;;;;;25.23;14.50;;;1.30;99.90;;;;;;5013076;28;20829;-65
2024/01/13 08:04:05;;;;;;;20.00;12.83;;;1.30;99.90;;;;;;5015294;28;20474;-65
2024/01/13 08:06:31;;;;;;;24.40;14.03;;;1.30;99.90;;;;;;5017195;28;20454;-65
2024/01/13 08:08:57;;;;;;;23.93;12.97;;;1.30;99.90;;;;;;5016654;28;20415;-65
2024/01/13 08:11:23;;;;;;;22.07;13.10;;;1.40;99.90;;;;;;5015009;28;20267;-65
2024/01/13 08:13:48;;;;;;;23.70;14.23;;;1.20;99.90;;;;;;5006404;28;20589;-65
2024/01/13 08:16:14;;;;;;;28.47;15.00;;;1.40;99.90;;;;;;5012981;28;20211;-65
2024/01/13 08:18:40;;;;;;;23.80;13.97;;;1.30;99.90;;;;;;5009123;28;20203;-65
2024/01/13 08:21:05;;;;;;;24.77;13.77;;;1.20;99.90;;;;;;5012109;28;20211;-65
2024/01/13 08:23:31;;;;;;;22.40;15.37;;;1.20;99.90;;;;;;5010855;28;20548;-65
2024/01/13 08:25:57;;;;;;;24.10;14.10;;;1.20;99.90;;;;;;5011445;28;20184;-65
2024/01/13 08:28:22;;;;;;;24.63;14.30;;;1.30;99.90;;;;;;5013416;28;20191;-65
2024/01/13 08:30:48;;;;;;;25.07;13.30;;;1.40;99.90;;;;;;5012359;28;20780;-65
2024/01/13 08:33:13;;;;;;;28.20;15.80;;;1.40;99.90;;;;;;5013175;28;20295;-65
2024/01/13 08:35:39;;;;;;;27.73;16.30;;;1.30;99.90;;;;;;5012179;28;20239;-65
2024/01/13 08:38:05;;;;;;;23.27;15.07;;;1.20;99.90;;;;;;5012173;28;20185;-65
2024/01/13 08:40:31;;;;;;;23.40;14.10;;;1.30;99.90;;;;;;5011208;28;20995;-65
2024/01/13 08:42:59;;;;;;;28.43;15.63;;;1.20;99.90;;;;;;5017052;28;20607;-65
2024/01/13 08:45:29;;;;;;;26.30;14.70;;;1.20;99.90;;;;;;5012181;28;20180;-65
2024/01/13 08:47:56;;;;;;;28.77;17.00;;;1.30;99.90;;;;;;5014712;28;20920;-65
2024/01/13 08:50:22;;;;;;;26.13;14.53;;;1.30;99.90;;;;;;5010667;28;20493;-65
2024/01/13 08:52:51;;;;;;;28.30;15.20;;;1.40;99.90;;;;;;5014946;28;20468;-65
2024/01/13 08:55:17;;;;;;;29.20;16.47;;;1.50;99.90;;;;;;5014699;28;20450;-65
2024/01/13 08:57:43;;;;;;;25.30;14.87;;;1.40;99.90;;;;;;5013272;28;20426;-65
2024/01/13 09:00:09;;;;;;;27.10;16.03;;;1.40;99.90;;;;;;5014248;28;20809;-65
2024/01/13 09:02:35;;;;;;;27.80;16.53;;;1.40;99.90;;;;;;5014334;28;20204;-65
2024/01/13 09:05:00;;;;;;;31.17;16.80;;;1.40;99.90;;;;;;5017201;28;20944;-65
2024/01/13 09:07:26;;;;;;;29.80;16.83;;;1.30;99.90;;;;;;5019458;28;20235;-65
2024/01/13 09:09:51;;;;;;;32.87;18.40;;;1.30;99.90;;;;;;5014489;28;20183;-65
2024/01/13 09:12:17;;;;;;;33.70;18.53;;;1.40;99.90;;;;;;5013475;28;20187;-65
2024/01/13 09:14:45;;;;;;;32.53;19.30;;;1.40;99.90;;;;;;5018111;28;20592;-65
2024/01/13 09:17:11;;;;;;;36.77;19.10;;;1.30;99.90;;;;;;5017867;28;20183;-65
2024/01/13 09:19:37;;;;;;;32.70;17.90;;;1.40;99.90;;;;;;4997486;28;20415;-65
2024/01/13 09:22:03;;;;;;;38.60;19.47;;;1.40;99.90;;;;;;5018827;28;20877;-65
2024/01/13 09:24:28;;;;;;;32.10;20.03;;;1.50;99.90;;;;;;5011288;28;20973;-65
2024/01/13 09:26:55;;;;;;;38.33;20.67;;;1.50;99.90;;;;;;5016196;28;20189;-65
2024/01/13 09:29:21;;;;;;;36.90;19.87;;;1.60;99.90;;;;;;5013049;28;20203;-65
2024/01/13 09:31:47;;;;;;;35.93;20.57;;;1.60;99.90;;;;;;5016550;28;20423;-65
2024/01/13 09:34:13;;;;;;;33.33;18.80;;;1.60;99.90;;;;;;5009019;28;20240;-65
2024/01/13 09:36:38;;;;;;;34.13;20.17;;;1.50;99.90;;;;;;5010781;28;20431;-65
2024/01/13 09:39:04;;;;;;;33.83;19.57;;;1.50;99.90;;;;;;5009676;28;20200;-65
2024/01/13 09:41:30;;;;;;;47.83;22.60;;;1.50;99.90;;;;;;5011366;28;20199;-65
2024/01/13 09:44:22;;;;;;;33.40;20.07;;;1.40;99.90;;;;;;5007973;28;20643;-65
2024/01/13 09:46:52;;;;;;;33.20;18.83;;;1.60;99.90;;;;;;5005658;28;20185;-65
2024/01/13 09:49:20;;;;;;;33.40;19.37;;;1.60;99.90;;;;;;5005495;28;20944;-66
2024/01/13 09:51:46;;;;;;;39.67;20.60;;;1.70;99.90;;;;;;5011761;28;20446;-65
2024/01/13 09:54:26;;;;;;;35.83;20.57;;;1.70;99.90;;;;;;5016268;28;20470;-65
2024/01/13 09:56:53;;;;;;;33.87;18.73;;;1.60;99.90;;;;;;5010913;28;20807;-65
2024/01/13 09:59:21;;;;;;;42.83;20.50;;;1.40;99.90;;;;;;5012090;28;21025;-66
2024/01/13 10:01:46;;;;;;;39.53;20.13;;;1.50;99.90;;;;;;5016180;28;20431;-65
2024/01/13 10:04:12;;;;;;;39.10;22.23;;;1.30;99.90;;;;;;5016621;28;20482;-65
2024/01/13 10:06:39;;;;;;;37.60;20.17;;;1.40;99.90;;;;;;5016649;28;20191;-65
2024/01/13 10:09:06;;;;;;;36.07;18.73;;;1.50;99.90;;;;;;5024589;28;20199;-65
2024/01/13 10:11:31;;;;;;;37.80;19.47;;;1.50;99.90;;;;;;5018149;28;20419;-64
2024/01/13 10:14:01;;;;;;;34.20;17.67;;;1.60;99.90;;;;;;5016052;28;20953;-64
2024/01/13 10:16:30;;;;;;;31.63;17.60;;;1.60;99.90;;;;;;5019106;28;20271;-66
2024/01/13 10:18:58;;;;;;;35.87;18.80;;;1.60;99.90;;;;;;5019884;28;20483;-65
2024/01/13 10:21:24;;;;;;;34.70;17.50;;;1.70;99.90;;;;;;5015593;28;20438;-65
2024/01/13 10:23:50;;;;;;;33.83;18.47;;;1.60;99.90;;;;;;5021613;28;20494;-65
2024/01/13 10:26:16;;;;;;;33.07;17.30;;;1.60;99.90;;;;;;5011915;28;20614;-65
2024/01/13 10:28:43;;;;;;;30.13;17.13;;;1.70;99.90;;;;;;5017931;28;20450;-65
2024/01/13 10:31:08;;;;;;;28.40;16.10;;;1.60;99.90;;;;;;5016233;28;20563;-65
2024/01/13 10:33:34;;;;;;;32.80;17.07;;;1.60;99.90;;;;;;5013973;28;20457;-65
2024/01/13 10:36:00;;;;;;;33.03;15.70;;;1.60;99.90;;;;;;5018997;28;20193;-65
2024/01/13 10:38:25;;;;;;;30.90;16.43;;;1.50;99.90;;;;;;5020535;28;20279;-65
2024/01/13 10:40:52;;;;;;;29.33;16.40;;;1.60;99.90;;;;;;5016068;28;20184;-65
2024/01/13 10:43:18;;;;;;;30.90;14.70;;;1.60;99.90;;;;;;5019854;28;20223;-64
2024/01/13 10:45:49;;;;;;;30.37;15.17;;;1.50;99.90;;;;;;5013974;28;20454;-66
2024/01/13 10:48:36;;;;;;;22.80;14.20;;;1.30;99.90;;;;;;5012957;28;20433;-64
2024/01/13 10:51:04;;;;;;;26.73;14.37;;;1.20;99.90;;;;;;5019503;28;20411;-64
2024/01/13 10:53:31;;;;;;;24.30;14.73;;;1.30;99.90;;;;;;5014169;28;20453;-65
2024/01/13 10:55:57;;;;;;;25.03;13.03;;;1.30;99.90;;;;;;5014911;28;20466;-65
2024/01/13 10:58:24;;;;;;;23.93;12.70;;;1.30;99.90;;;;;;5020104;28;20462;-65
2024/01/13 11:00:51;;;;;;;21.77;12.87;;;1.30;99.90;;;;;;5016090;28;20984;-65
2024/01/13 11:03:18;;;;;;;28.60;14.63;;;1.30;99.90;;;;;;5016889;28;20478;-65
2024/01/13 11:05:44;;;;;;;28.10;14.87;;;1.20;99.90;;;;;;5019182;28;20436;-65
2024/01/13 11:08:10;;;;;;;27.47;15.13;;;1.30;99.90;;;;;;5004670;28;20486;-65
2024/01/13 11:10:41;;;;;;;22.63;13.27;;;1.40;99.90;;;;;;5018941;28;20427;-65
2024/01/13 11:13:23;;;;;;;23.53;12.57;;;1.30;99.90;;;;;;5022041;28;21131;-67
2024/01/13 11:16:10;;;;;;;21.33;11.37;;;1.30;99.90;;;;;;5022453;28;20442;-67
2024/01/13 11:18:48;;;;;;;16.53;10.20;;;1.20;99.90;;;;;;5026330;28;20982;-67
2024/01/13 11:21:16;;;;;;;21.60;10.90;;;1.30;99.90;;;;;;5023464;28;20439;-68
2024/01/13 11:23:47;;;;;;;16.07;10.43;;;1.40;99.90;;;;;;5021997;28;20948;-67
2024/01/13 11:26:19;;;;;;;19.80;11.60;;;1.30;99.90;;;;;;5014268;28;20770;-68
2024/01/13 11:28:48;;;;;;;20.20;12.30;;;1.30;99.90;;;;;;5022906;28;20438;-67
2024/01/13 11:31:45;;;;;;;23.13;12.40;;;1.30;99.90;;;;;;5020801;28;20489;-66
2024/01/13 11:34:13;;;;;;;18.47;10.97;;;1.30;99.90;;;;;;5018960;28;20825;-66
2024/01/13 11:36:41;;;;;;;20.63;11.30;;;1.40;99.90;;;;;;5026161;28;20433;-67
2024/01/13 11:39:08;;;;;;;20.03;12.90;;;1.30;99.90;;;;;;5019571;28;20435;-67
2024/01/13 11:41:48;;;;;;;27.53;16.07;;;1.10;99.90;;;;;;5021228;28;20431;-65
2024/01/13 11:44:24;;;;;;;25.17;14.37;;;1.10;99.90;;;;;;5034756;28;20542;-66
2024/01/13 11:47:07;;;;;;;25.10;14.13;;;1.30;99.90;;;;;;5021348;28;20436;-66
2024/01/13 11:49:40;;;;;;;27.30;15.47;;;1.20;99.90;;;;;;5016907;28;20415;-66
2024/01/13 11:52:09;;;;;;;28.30;13.43;;;1.10;99.90;;;;;;5018939;28;20756;-67
2024/01/13 11:54:36;;;;;;;27.13;15.13;;;1.00;99.90;;;;;;5022075;28;20467;-66
2024/01/13 11:57:05;;;;;;;28.97;12.87;;;0.90;99.90;;;;;;5022413;28;20437;-65
2024/01/13 11:59:31;;;;;;;29.43;14.53;;;0.90;99.90;;;;;;5016841;28;20424;-65
2024/01/13 12:01:57;;;;;;;23.97;13.33;;;0.80;99.90;;;;;;5021367;28;20444;-65
2024/01/13 12:04:30;;;;;;;30.90;14.97;;;0.80;99.90;;;;;;5018971;28;20298;-64
2024/01/13 12:06:56;;;;;;;27.43;15.90;;;0.80;99.90;;;;;;5015074;28;20684;-65
2024/01/13 12:09:23;;;;;;;28.27;15.57;;;0.80;99.90;;;;;;5014355;28;20456;-65
2024/01/13 12:12:00;;;;;;;32.27;14.03;;;0.80;99.90;;;;;;5017492;28;20465;-66
2024/01/13 12:14:30;;;;;;;27.50;13.60;;;0.70;99.90;;;;;;5017426;28;20461;-65
2024/01/13 12:16:57;;;;;;;29.07;13.17;;;0.70;99.90;;;;;;5014948;28;20493;-65
2024/01/13 12:19:27;;;;;;;34.80;15.50;;;0.60;99.90;;;;;;5022612;28;20424;-66
2024/01/13 12:21:53;;;;;;;26.53;14.30;;;0.60;99.90;;;;;;5014529;28;20473;-65
2024/01/13 12:24:27;;;;;;;31.80;15.90;;;0.50;99.90;;;;;;5019684;28;20474;-66
2024/01/13 12:26:53;;;;;;;24.60;13.03;;;0.50;99.90;;;;;;5018216;28;20432;-65
2024/01/13 12:29:19;;;;;;;28.77;14.30;;;0.60;99.90;;;;;;5013563;28;20890;-65
2024/01/13 12:31:44;;;;;;;31.50;15.33;;;0.50;99.90;;;;;;5023147;28;20500;-65